ADDS METAR Data INFO
IDs: Format: Raw Decoded Include TAF

Data at: 0349 UTC 20 Feb 2018

KWYS 200335Z AUTO 00000KT 10SM BKN027 M27/M29 A2963 RMK AO2
KWYS 200310Z AUTO 00000KT 10SM FEW021 BKN029 BKN035 M26/M28 A2962 RMK AO2
KWYS 200250Z AUTO 22004KT 10SM BKN021 OVC029 M25/M27 A2962 RMK AO2
KWYS 200230Z AUTO 00000KT 10SM OVC023 M21/M25 A2961 RMK AO2
KWYS 200210Z AUTO 30005KT 10SM OVC024 M21/M25 A2960 RMK AO2
KWYS 200155Z AUTO VRB03KT 10SM OVC024 M21/M25 A2960 RMK AO2
KWYS 200135Z AUTO VRB06G11KT 10SM BKN023 BKN030 M21/M24 A2959 RMK AO2
KWYS 200115Z AUTO 32006KT 10SM CLR M20/M23 A2957 RMK AO2
KWYS 200055Z AUTO 32006KT 10SM CLR M19/M23 A2956 RMK AO2
KWYS 200035Z AUTO 32006KT 10SM CLR M17/M21 A2955 RMK AO2
KWYS 200015Z AUTO VRB03KT 10SM BKN031 M15/M20 A2954 RMK AO2
KWYS 192355Z AUTO VRB04KT 10SM BKN031 M15/M20 A2954 RMK AO2
KWYS 192330Z AUTO 33005KT 10SM CLR M15/M20 A2953 RMK AO2
KWYS 192310Z AUTO 31004KT 10SM FEW036 M14/M19 A2953 RMK AO2
KWYS 192255Z AUTO VRB03KT 10SM CLR M14/M19 A2952 RMK AO2
KWYS 192235Z AUTO 34004KT 10SM CLR M14/M19 A2952 RMK AO2
KWYS 192215Z AUTO 34003KT 10SM CLR M14/M19 A2951 RMK AO2
KWYS 192155Z AUTO VRB05KT 10SM CLR M14/M19 A2951 RMK AO2
KWYS 192135Z AUTO 00000KT 10SM FEW022 M14/M19 A2951 RMK AO2
KWYS 192115Z AUTO 00000KT 10SM FEW022 M14/M20 A2951 RMK AO2
KWYS 192055Z AUTO 00000KT 10SM CLR M15/M20 A2950 RMK AO2
KWYS 192030Z AUTO 08004KT 10SM CLR M15/M20 A2951 RMK AO2
KWYS 192010Z AUTO 09003KT 5SM HZ SCT021 M15/M20 A2951 RMK AO2
KWYS 191955Z AUTO 00000KT 10SM OVC021 M15/M21 A2952 RMK AO2
KWYS 191935Z AUTO 34006KT 10SM OVC021 M15/M20 A2952 RMK AO2
KWYS 191915Z AUTO 04003KT 10SM OVC022 M16/M21 A2952 RMK AO2
KWYS 191855Z AUTO 00000KT 6SM HZ OVC022 M16/M21 A2953 RMK AO2
KWYS 191830Z AUTO 08003KT 9SM OVC022 M17/M22 A2953 RMK AO2
KWYS 191810Z AUTO 00000KT 10SM OVC023 M17/M22 A2953 RMK AO2
KWYS 191750Z AUTO 02006KT 10SM OVC024 M17/M22 A2954 RMK AO2
KWYS 191735Z AUTO 00000KT 10SM OVC023 M18/M22 A2954 RMK AO2
KWYS 191715Z AUTO 05003KT 10SM OVC024 M18/M23 A2954 RMK AO2
KWYS 191655Z AUTO 04005KT 10SM OVC023 M18/M23 A2954 RMK AO2
KWYS 191635Z AUTO 02006KT 10SM OVC023 M18/M23 A2953 RMK AO2
KWYS 191615Z AUTO 04008KT 10SM OVC023 M19/M24 A2953 RMK AO2
KWYS 191555Z AUTO 03003KT 10SM OVC023 M19/M23 A2954 RMK AO2
KWYS 191535Z AUTO 32003KT 10SM OVC024 M19/M23 A2954 RMK AO2
KWYS 191515Z AUTO 00000KT 10SM OVC024 M19/M23 A2954 RMK AO2
KWYS 191455Z AUTO 36004KT 10SM OVC025 M19/M23 A2954 RMK AO2
KWYS 191430Z AUTO 00000KT 10SM OVC025 M19/M22 A2953 RMK AO2
KWYS 191410Z AUTO 31003KT 10SM OVC026 M19/M22 A2952 RMK AO2
KWYS 191350Z AUTO 31003KT 10SM OVC027 M19/M22 A2952 RMK AO2
KWYS 191335Z AUTO 32003KT 10SM OVC027 M19/M22 A2952 RMK AO2
KWYS 191315Z AUTO 32003KT 10SM OVC027 M19/M22 A2952 RMK AO2
KWYS 191255Z AUTO 00000KT 9SM -SN OVC026 M18/M22 A2951 RMK AO2
KWYS 191230Z AUTO VRB03KT 8SM -SN OVC026 M18/M22 A2951 RMK AO2
KWYS 191210Z AUTO 02004KT 10SM -SN OVC026 M18/M22 A2950 RMK AO2
KWYS 191155Z AUTO 04006KT 10SM OVC027 M18/M21 A2951 RMK AO2
KWYS 191135Z AUTO 03004KT 10SM OVC026 M18/M21 A2950 RMK AO2
KWYS 191115Z AUTO 00000KT 10SM OVC027 M18/M21 A2950 RMK AO2
KWYS 191050Z AUTO 00000KT 8SM -SN OVC026 M18/M20 A2949 RMK AO2
KWYS 191030Z AUTO 32004KT 10SM OVC025 M18/M20 A2948 RMK AO2
KWYS 191015Z AUTO 00000KT 10SM -SN OVC026 M18/M20 A2950 RMK AO2
KWYS 190955Z AUTO 33005KT 5SM -SN OVC027 M18/M20 A2950 RMK AO2
KWYS 190935Z AUTO 31005KT 2SM -SN SCT003 BKN029 M18/M20 A2950 RMK AO2
KWYS 190915Z AUTO VRB04KT 1 1/4SM -SN OVC003 M18/M20 A2947 RMK AO2
KWYS 190850Z AUTO VRB05G11KT 1SM -SN OVC003 M18/M20 A2946 RMK AO2
KWYS 190835Z AUTO 32007KT 1 3/4SM -SN OVC003 M18/M20 A2946 RMK AO2
KWYS 190815Z AUTO 31004KT 3SM -SN FEW003 BKN024 M17/M20 A2948 RMK AO2
KWYS 190755Z AUTO VRB05KT 3SM -SN FEW004 BKN024 M17/M19 A2948 RMK AO2
KWYS 190730Z AUTO 33005KT 4SM -SN FEW004 FEW011 BKN022 M17/M20 A2947 RMK AO2
KWYS 190710Z AUTO 31005KT 4SM -SN FEW005 SCT011 OVC023 M16/M19 A2948 RMK AO2
KWYS 190655Z AUTO 32006KT 5SM -SN SCT005 OVC022 M16/M18 A2947 RMK AO2
KWYS 190635Z AUTO 31004KT 6SM -SN FEW005 OVC022 M16/M18 A2947 RMK AO2
KWYS 190615Z AUTO 00000KT 5SM -SN BKN004 OVC023 M16/M18 A2947 RMK AO2
KWYS 190550Z AUTO 00000KT 4SM -SN BKN005 OVC008 M16/M18 A2948 RMK AO2
KWYS 190530Z AUTO 32003KT 3SM -SN BKN004 BKN007 M16/M18 A2948 RMK AO2
KWYS 190515Z AUTO 31003KT 3SM -SN OVC005 M16/M18 A2948 RMK AO2
KWYS 190455Z AUTO 29004KT 1/2SM -SN M15/M17 A2948 RMK AO2
KWYS 190435Z AUTO VRB03KT 1/2SM -SN M14/M16 A2948 RMK AO2
KWYS 190415Z AUTO 04008KT 3/4SM -SN OVC003 M14/M16 A2947 RMK AO2
KWYS 190355Z AUTO 02005KT 1 3/4SM -SN SCT003 BKN010 OVC013 M13/M16 A2947 RMK AO2
KWYS 190330Z AUTO 08009KT 2SM -SN SCT003 SCT010 BKN018 M13/M16 A2946 RMK AO2
KWYS 190310Z AUTO 01007KT 1 3/4SM -SN SCT003 OVC009 M14/M16 A2945 RMK AO2
KWYS 190255Z AUTO 33007KT 2 1/2SM -SN FEW004 OVC010 M14/M16 A2946 RMK AO2
KWYS 190235Z AUTO 01004KT 4SM -SN OVC012 M13/M15 A2945 RMK AO2
KWYS 190215Z AUTO 03005G11KT 3SM -SN FEW004 BKN012 OVC029 M12/M14 A2946 RMK AO2
KWYS 190155Z AUTO VRB04KT 1 1/4SM -SN OVC003 M13/M14 A2946 RMK AO2
KWYS 190135Z AUTO 04005KT 1/2SM -SN M13/M15 A2945 RMK AO2
KWYS 190115Z AUTO 35004KT 3/4SM -SN OVC003 M13/M15 A2944 RMK AO2
KWYS 190050Z AUTO 32006KT 3SM -SN BKN031 BKN038 BKN048 M12/M15 A2944 RMK AO2
KWYS 190030Z AUTO 32005KT 3SM -SN FEW030 SCT038 BKN065 M11/M14 A2942 RMK AO2
KWYS 190010Z AUTO 00000KT 10SM SCT029 SCT036 SCT043 M10/M13 A2941 RMK AO2
KWYS 182355Z AUTO VRB06KT 10SM FEW047 FEW055 SCT065 M09/M13 A2941 RMK AO2
KWYS 182335Z AUTO VRB06KT 10SM FEW045 BKN060 BKN065 M08/M11 A2941 RMK AO2
KWYS 182315Z AUTO 35003KT 10SM FEW018 BKN055 M07/M10 A2940 RMK AO2
KWYS 182255Z AUTO 00000KT 10SM -SN BKN018 BKN060 M07/M10 A2940 RMK AO2
KWYS 182235Z AUTO 36005KT 10SM BKN020 BKN050 OVC055 M06/M10 A2939 RMK AO2
KWYS 182210Z AUTO 00000KT 10SM SCT049 BKN065 M06/M09 A2939 RMK AO2
KWYS 182150Z AUTO 29004KT 10SM BKN065 BKN075 BKN090 M05/M09 A2939 RMK AO2
KWYS 182135Z AUTO VRB04KT 10SM FEW065 SCT075 SCT090 M05/M09 A2938 RMK AO2
KWYS 182115Z AUTO VRB03KT 10SM CLR M04/M09 A2938 RMK AO2
KWYS 182055Z AUTO 00000KT 10SM CLR M04/M09 A2938 RMK AO2
KWYS 182035Z AUTO 07006KT 10SM CLR M05/M08 A2937 RMK AO2
KWYS 182010Z AUTO 05004KT 10SM FEW060 FEW070 FEW090 M04/M09 A2939 RMK AO2
KWYS 181950Z AUTO 20005KT 10SM SCT060 SCT070 SCT090 M05/M09 A2941 RMK AO2
KWYS 181930Z AUTO 21007KT 10SM FEW026 FEW045 BKN060 M06/M08 A2941 RMK AO2
KWYS 181910Z AUTO 21006KT 8SM FEW003 SCT031 BKN065 M06/M08 A2941 RMK AO2
KWYS 181855Z AUTO 22007KT 1SM -SN SCT003 BKN019 BKN024 M06/M08 A2942 RMK AO2
KWYS 181835Z AUTO 23007KT 8SM -SN SCT019 BKN026 BKN036 M05/M08 A2942 RMK AO2
KWYS 181815Z AUTO 00000KT 8SM -UP FEW013 SCT018 BKN027 M05/M07 A2941 RMK AO2
KWYS 181755Z AUTO 00000KT 10SM M04/M06 A2940 RMK AO2
KWYS 181735Z AUTO VRB04KT M04/M06 A2940 RMK AO2 PWINO